createdAt,value
2019-03-08T00:02:07.049Z,98972.00
2019-03-08T00:07:10.471Z,98970.25
2019-03-08T00:12:13.977Z,98992.22
2019-03-08T00:17:17.417Z,99002.23
2019-03-08T00:22:20.847Z,99008.78
2019-03-08T00:27:24.256Z,98995.63
2019-03-08T00:32:27.690Z,99030.50
2019-03-08T00:37:31.134Z,99015.70
2019-03-08T00:42:35.079Z,99016.60
2019-03-08T00:47:38.667Z,99015.02
2019-03-08T00:52:42.092Z,99025.08
2019-03-08T00:57:47.070Z,99029.38
2019-03-08T01:02:50.530Z,99036.78
2019-03-08T01:07:53.950Z,99027.31
2019-03-08T01:12:57.373Z,99024.70
2019-03-08T01:18:00.887Z,99040.67
2019-03-08T01:23:04.607Z,99032.87
2019-03-08T01:28:12.458Z,99035.93
2019-03-08T01:33:16.541Z,99058.82
2019-03-08T01:38:20.782Z,99076.39
2019-03-08T01:43:24.231Z,99086.53
2019-03-08T01:48:27.842Z,99094.47
2019-03-08T01:53:31.314Z,99098.52
2019-03-08T01:58:34.751Z,99104.02
2019-03-08T02:03:38.394Z,99104.23
2019-03-08T02:08:41.894Z,99095.99
2019-03-08T02:13:45.439Z,99091.56
2019-03-08T02:18:48.865Z,99111.55
2019-03-08T02:23:52.452Z,99113.61
2019-03-08T02:28:55.969Z,99099.88
2019-03-08T02:33:59.416Z,99141.63
2019-03-08T02:39:03.017Z,99167.11
2019-03-08T02:44:06.536Z,99173.09
2019-03-08T02:49:10.040Z,99185.80
2019-03-08T02:54:13.459Z,99196.08
2019-03-08T02:59:17.071Z,99189.20
2019-03-08T03:04:20.521Z,99194.52
2019-03-08T03:09:23.940Z,99204.22
2019-03-08T03:14:27.406Z,99195.91
2019-03-08T03:19:30.827Z,99207.48
2019-03-08T03:24:34.266Z,99211.91
2019-03-08T03:29:37.700Z,99223.94
2019-03-08T03:34:41.207Z,99236.00
2019-03-08T03:39:44.654Z,99246.95
2019-03-08T03:44:48.094Z,99263.35
2019-03-08T03:49:51.515Z,99265.55
2019-03-08T03:54:54.959Z,99268.22
2019-03-08T03:59:58.390Z,99280.97
2019-03-08T04:05:01.817Z,99299.97
2019-03-08T04:10:20.454Z,99316.33
2019-03-08T04:15:23.886Z,99326.94
2019-03-08T04:20:27.319Z,99337.84
2019-03-08T04:25:30.783Z,99352.55
2019-03-08T04:30:34.230Z,99352.02
2019-03-08T04:35:37.665Z,99377.02
2019-03-08T04:40:41.150Z,99376.73
2019-03-08T04:45:44.580Z,99388.86
2019-03-08T04:50:48.060Z,99387.55
2019-03-08T04:55:51.554Z,99396.19
2019-03-08T05:00:54.979Z,99410.38
2019-03-08T05:05:58.434Z,99413.04
2019-03-08T05:11:01.829Z,99426.34
2019-03-08T05:16:05.270Z,99428.48
2019-03-08T05:21:08.695Z,99440.08
2019-03-08T05:26:12.186Z,99444.08
2019-03-08T05:31:15.856Z,99461.42
2019-03-08T05:36:19.308Z,99465.72
2019-03-08T05:41:22.743Z,99475.27
2019-03-08T05:46:26.154Z,99483.05
2019-03-08T05:51:29.589Z,99487.39
2019-03-08T05:56:33.026Z,99499.91
2019-03-08T06:01:39.599Z,99510.62
2019-03-08T06:06:43.310Z,99518.33
2019-03-08T06:11:46.749Z,99540.89
2019-03-08T06:16:50.200Z,99553.00
2019-03-08T06:21:53.655Z,99589.30
2019-03-08T06:26:57.063Z,99594.02
2019-03-08T06:32:00.683Z,99616.09
2019-03-08T06:37:04.107Z,99634.19
2019-03-08T06:42:07.621Z,99652.34
2019-03-08T06:47:11.055Z,99669.16
2019-03-08T06:52:14.479Z,99683.17
2019-03-08T06:57:17.919Z,99692.25
2019-03-08T07:02:22.114Z,99710.84
2019-03-08T07:07:25.566Z,99738.87
2019-03-08T07:12:29.107Z,99751.81
2019-03-08T07:17:32.638Z,99761.71
2019-03-08T07:22:46.925Z,99789.85
2019-03-08T07:27:52.016Z,99805.80
2019-03-08T07:32:59.526Z,99824.06
2019-03-08T07:38:10.553Z,99828.75
2019-03-08T07:48:47.783Z,99858.50
2019-03-08T07:53:52.871Z,99884.05
2019-03-08T07:58:57.931Z,99898.66
2019-03-08T08:09:25.477Z,99922.25
2019-03-08T08:14:40.008Z,99943.45
2019-03-08T08:19:48.042Z,99953.84
2019-03-08T08:24:55.792Z,99968.13
2019-03-08T08:30:12.624Z,99988.40
2019-03-08T08:35:17.707Z,99994.42
2019-03-08T08:40:22.820Z,100000.03
2019-03-08T08:50:53.122Z,100044.88
2019-03-08T08:56:14.239Z,100061.61
2019-03-08T09:01:28.159Z,100078.28
2019-03-08T09:06:35.802Z,100090.94
2019-03-08T09:11:45.884Z,100113.41
2019-03-08T09:16:47.714Z,100147.12
2019-03-08T09:21:58.671Z,100162.26
2019-03-08T09:27:12.542Z,100154.08
2019-03-08T09:32:17.604Z,100148.02
2019-03-08T09:37:34.661Z,100154.48
2019-03-08T09:42:45.480Z,100161.75
2019-03-08T09:53:07.141Z,100170.16
2019-03-08T09:58:21.025Z,100177.86
2019-03-08T10:03:26.102Z,100192.72
2019-03-08T10:08:43.120Z,100192.13
2019-03-08T10:13:51.277Z,100200.54
2019-03-08T10:19:14.575Z,100208.61
2019-03-08T10:24:22.390Z,100221.58
2019-03-08T10:29:30.162Z,100225.21
2019-03-08T10:34:41.110Z,100226.27
2019-03-08T10:45:02.412Z,100237.69
2019-03-08T10:50:13.108Z,100233.25
2019-03-08T10:55:34.442Z,100237.34
2019-03-08T11:00:39.538Z,100254.86
2019-03-08T11:06:00.731Z,100260.11
2019-03-08T11:11:08.491Z,100269.45
2019-03-08T11:16:13.961Z,100279.81
2019-03-08T11:27:13.177Z,100283.09
2019-03-08T11:32:36.268Z,100309.67
2019-03-08T11:37:43.794Z,100309.79
2019-03-08T11:42:54.959Z,100323.14
2019-03-08T11:48:17.115Z,100339.38
2019-03-08T11:53:24.849Z,100370.95
2019-03-08T11:58:44.833Z,100382.90
2019-03-08T12:03:52.784Z,100382.86
2019-03-08T12:09:06.359Z,100387.94
2019-03-08T12:14:20.732Z,100393.45
2019-03-08T12:19:26.120Z,100396.59
2019-03-08T12:24:31.213Z,100403.52
2019-03-08T12:29:36.277Z,100401.19
2019-03-08T12:34:44.230Z,100412.27
2019-03-08T12:39:51.862Z,100412.38
2019-03-08T12:45:26.666Z,100422.01
2019-03-08T12:50:59.352Z,100417.22
2019-03-08T13:08:01.633Z,100461.06
2019-03-08T13:13:05.317Z,100442.27
2019-03-08T13:18:08.815Z,100431.30
2019-03-08T13:23:12.271Z,100447.09
2019-03-08T13:28:15.761Z,100446.74
2019-03-08T13:39:18.339Z,100448.59
2019-03-08T13:44:59.889Z,100445.30
2019-03-08T13:56:30.600Z,100460.48
2019-03-08T14:01:34.154Z,100467.41
2019-03-08T14:06:37.611Z,100487.02
2019-03-08T14:11:41.069Z,100484.47
2019-03-08T14:16:44.458Z,100477.33
2019-03-08T14:21:47.899Z,100485.89
2019-03-08T14:26:51.322Z,100503.62
2019-03-08T14:31:56.568Z,100491.56
2019-03-08T14:37:00.005Z,100501.41
2019-03-08T14:42:15.669Z,100494.92
2019-03-08T14:47:24.458Z,100495.91
2019-03-08T14:52:32.170Z,100497.02
2019-03-08T14:57:35.531Z,100507.66
2019-03-08T15:02:39.205Z,100505.29
2019-03-08T15:07:44.172Z,100498.37
2019-03-08T15:12:49.484Z,100509.70
2019-03-08T15:17:53.513Z,100518.03
2019-03-08T15:34:10.409Z,100515.56
2019-03-08T15:39:13.821Z,100529.23
2019-03-08T15:44:17.258Z,100526.09
2019-03-08T15:49:20.695Z,100535.75
2019-03-08T15:54:24.161Z,100530.23
2019-03-08T15:59:27.784Z,100537.21
2019-03-08T16:04:31.244Z,100525.95
2019-03-08T16:09:36.309Z,100520.18
2019-03-08T16:14:39.822Z,100531.02
2019-03-08T16:19:43.250Z,100527.67
2019-03-08T16:24:46.693Z,100524.73
2019-03-08T16:29:50.244Z,100519.21
2019-03-08T16:34:53.439Z,100521.95
2019-03-08T16:45:33.437Z,100521.21
2019-03-08T16:50:50.409Z,100510.48
2019-03-08T16:56:03.113Z,100507.51
2019-03-08T17:01:10.683Z,100510.61
2019-03-08T17:06:31.079Z,100508.10
2019-03-08T17:11:36.155Z,100502.97
2019-03-08T17:16:50.247Z,100503.42
2019-03-08T17:22:13.598Z,100496.95
2019-03-08T17:27:33.403Z,100491.73
2019-03-08T17:32:38.514Z,100488.32
2019-03-08T17:37:49.543Z,100498.33
2019-03-08T17:42:54.618Z,100498.77
2019-03-08T17:48:02.389Z,100497.05
2019-03-08T17:53:07.452Z,100490.55
2019-03-08T17:58:30.691Z,100494.45
2019-03-08T18:03:38.809Z,100494.87
2019-03-08T18:08:52.938Z,100496.19
2019-03-08T18:13:58.009Z,100495.73
2019-03-08T18:19:03.076Z,100492.32
2019-03-08T18:24:10.985Z,100494.47
2019-03-08T18:29:17.566Z,100503.11
2019-03-08T18:34:25.216Z,100498.34
2019-03-08T18:39:42.173Z,100492.27
2019-03-08T18:44:50.833Z,100506.08
2019-03-08T18:49:58.671Z,100492.67
2019-03-08T18:55:22.506Z,100487.91
2019-03-08T19:22:43.297Z,100467.62
2019-03-08T19:33:54.893Z,100451.22
2019-03-08T19:39:15.075Z,100461.16
2019-03-08T19:44:31.920Z,100459.44
2019-03-08T19:49:53.929Z,100460.72
2019-03-08T19:55:02.695Z,100461.16
2019-03-08T20:00:25.620Z,100446.03
2019-03-08T20:05:46.674Z,100448.20
2019-03-08T20:27:54.269Z,100472.34
2019-03-08T20:33:10.481Z,100484.50
2019-03-08T20:38:33.733Z,100478.52
2019-03-08T20:43:41.547Z,100459.08
2019-03-08T20:48:45.025Z,100439.64
2019-03-08T20:53:48.834Z,100432.72
2019-03-08T20:58:52.359Z,100421.09
2019-03-08T21:03:57.941Z,100422.81
2019-03-08T21:09:01.560Z,100420.65
2019-03-08T21:14:05.378Z,100408.12
2019-03-08T21:19:08.824Z,100405.55
2019-03-08T21:24:15.299Z,100401.22
2019-03-08T21:29:20.305Z,100395.60
2019-03-08T21:34:23.725Z,100395.17
2019-03-08T21:39:27.173Z,100380.94
2019-03-08T21:44:30.606Z,100378.77
2019-03-08T21:49:34.113Z,100378.33
2019-03-08T21:54:38.551Z,100373.56
2019-03-08T21:59:41.961Z,100358.87
2019-03-08T22:04:47.059Z,100343.32
2019-03-08T22:09:52.390Z,100332.93
2019-03-08T22:14:57.655Z,100322.97
2019-03-08T22:20:04.722Z,100312.99
2019-03-08T22:25:08.921Z,100289.65
2019-03-08T22:30:17.632Z,100279.72
2019-03-08T22:35:21.449Z,100268.50
2019-03-08T22:40:25.170Z,100264.59
2019-03-08T22:45:28.731Z,100241.26
2019-03-08T22:50:33.213Z,100247.73
2019-03-08T22:55:36.567Z,100225.70
2019-03-08T23:00:53.971Z,100223.56
2019-03-08T23:05:57.419Z,100221.81
2019-03-08T23:11:01.076Z,100218.41
2019-03-08T23:16:04.521Z,100207.60
2019-03-08T23:21:07.950Z,100203.70
2019-03-08T23:26:11.416Z,100189.41
2019-03-08T23:31:25.112Z,100183.37
2019-03-08T23:36:30.212Z,100178.13
2019-03-08T23:41:33.628Z,100172.93
2019-03-08T23:46:37.073Z,100169.91
2019-03-08T23:51:40.516Z,100162.58
2019-03-08T23:56:43.945Z,100166.02
